Etihad Airways Virtual Airport Information Service

Karachi Jinnah International Airport

ICAO: OPKC Country: Pakistan
Latitude: 24.9065 Longitude: 67.1608
Latest Arrival : ETD200 (OMAA-OPKC) Latest Departure : ETD201 (OPKC-OMAA)


WX CaptureLIVE
Data provided by noaa.gov | Recorded at 18:14:41

METAR : OPKC 081725Z 00000KT 6000 NSC 25/20 Q1012 NOSIG

TAF : OPKC 081600Z 0818/0924 28008KT 5000 HZ NSC TEMPO 0901/0905 31005KT 4000 FU NSC FM 090700 25010G20KT 6000 NSC FM 091800 27008KT 5000 FU NSC


Runway Data for OPKC
Data provided by openaviationdata.com

Runway ID Mag Var Hdg Length Elevation Surface ILS Freq ILS Id ILS Slope

Karachi Jinnah International Airport, Pakistan
Use only for reference purposes